createdAt,value
2022-08-31T00:02:38.123Z,98169.00
2022-08-31T00:05:13.155Z,98173.00
2022-08-31T00:07:48.090Z,98173.00
2022-08-31T00:10:32.559Z,98164.00
2022-08-31T00:13:12.282Z,98171.00
2022-08-31T00:15:47.216Z,98162.00
2022-08-31T00:18:22.785Z,98165.00
2022-08-31T00:20:58.536Z,98162.00
2022-08-31T00:23:33.488Z,98163.00
2022-08-31T00:26:08.412Z,98171.00
2022-08-31T00:28:43.721Z,98176.00
2022-08-31T00:31:22.682Z,98177.00
2022-08-31T00:33:57.864Z,98182.00
2022-08-31T00:36:33.386Z,98194.00
2022-08-31T00:39:08.640Z,98209.00
2022-08-31T00:41:43.692Z,98207.00
2022-08-31T00:44:18.744Z,98220.00
2022-08-31T00:46:53.631Z,98225.00
2022-08-31T00:49:32.720Z,98234.00
2022-08-31T00:52:33.145Z,98249.00
2022-08-31T00:55:18.814Z,98261.00
2022-08-31T00:57:56.165Z,98250.00
2022-08-31T01:00:31.927Z,98257.00
2022-08-31T01:03:08.720Z,98250.00
2022-08-31T01:05:43.717Z,98243.00
2022-08-31T01:08:18.735Z,98247.00
2022-08-31T01:11:02.252Z,98240.00
2022-08-31T01:13:37.439Z,98236.00
2022-08-31T01:16:23.056Z,98235.00
2022-08-31T01:19:00.707Z,98228.00
2022-08-31T01:21:46.344Z,98222.00
2022-08-31T01:24:23.934Z,98230.00
2022-08-31T01:27:03.885Z,98227.00
2022-08-31T01:29:39.036Z,98241.00
2022-08-31T01:32:13.959Z,98240.00
2022-08-31T01:34:49.313Z,98235.00
2022-08-31T01:37:29.255Z,98239.00
2022-08-31T01:40:06.002Z,98241.00
2022-08-31T01:42:41.104Z,98226.00
2022-08-31T01:45:17.465Z,98241.00
2022-08-31T01:47:52.358Z,98238.00
2022-08-31T01:50:27.678Z,98237.00
2022-08-31T01:53:02.826Z,98238.00
2022-08-31T01:55:39.197Z,98233.00
2022-08-31T01:58:14.548Z,98239.00
2022-08-31T02:01:33.058Z,98236.00
2022-08-31T02:04:13.113Z,98247.00
2022-08-31T02:06:51.970Z,98250.00
2022-08-31T02:09:29.322Z,98254.00
2022-08-31T02:12:04.960Z,98260.00
2022-08-31T02:14:41.703Z,98244.00
2022-08-31T02:17:16.994Z,98253.00
2022-08-31T02:19:52.152Z,98252.00
2022-08-31T02:22:27.085Z,98254.00
2022-08-31T02:25:03.390Z,98252.00
2022-08-31T02:27:38.493Z,98248.00
2022-08-31T02:30:19.081Z,98250.00
2022-08-31T02:32:54.223Z,98256.00
2022-08-31T02:35:29.936Z,98255.00
2022-08-31T02:38:06.452Z,98249.00
2022-08-31T02:40:41.874Z,98251.00
2022-08-31T02:43:24.480Z,98248.00
2022-08-31T02:46:02.035Z,98249.00
2022-08-31T02:48:43.940Z,98249.00
2022-08-31T02:51:24.579Z,98258.00
2022-08-31T02:53:59.499Z,98258.00
2022-08-31T02:56:34.902Z,98258.00
2022-08-31T02:59:10.011Z,98255.00
2022-08-31T03:01:45.242Z,98252.00
2022-08-31T03:04:22.208Z,98253.00
2022-08-31T03:06:57.299Z,98248.00
2022-08-31T03:09:32.755Z,98256.00
2022-08-31T03:12:07.943Z,98250.00
2022-08-31T03:14:43.942Z,98246.00
2022-08-31T03:17:18.922Z,98254.00
2022-08-31T03:20:04.965Z,98249.00
2022-08-31T03:22:41.284Z,98252.00
2022-08-31T03:25:21.684Z,98256.00
2022-08-31T03:27:57.452Z,98253.00
2022-08-31T03:30:34.436Z,98254.00
2022-08-31T03:33:15.982Z,98254.00
2022-08-31T03:35:53.518Z,98252.00
2022-08-31T03:38:28.622Z,98254.00
2022-08-31T03:41:03.632Z,98249.00
2022-08-31T03:43:40.015Z,98243.00
2022-08-31T03:46:15.141Z,98243.00
2022-08-31T03:48:51.866Z,98245.00
2022-08-31T03:51:27.501Z,98240.00
2022-08-31T03:54:02.490Z,98240.00
2022-08-31T03:56:38.762Z,98244.00
2022-08-31T03:59:15.243Z,98240.00
2022-08-31T04:02:34.163Z,98256.00
2022-08-31T04:05:34.983Z,98256.00
2022-08-31T04:08:23.043Z,98252.00
2022-08-31T04:11:44.371Z,98257.00
2022-08-31T04:14:40.553Z,98260.00
2022-08-31T04:17:34.762Z,98262.00
2022-08-31T04:20:30.017Z,98263.00
2022-08-31T04:23:06.341Z,98266.00
2022-08-31T04:25:43.481Z,98270.00
2022-08-31T04:28:18.835Z,98273.00
2022-08-31T04:30:54.039Z,98265.00
2022-08-31T04:33:29.743Z,98270.00
2022-08-31T04:36:16.645Z,98264.00
2022-08-31T04:38:54.363Z,98269.00
2022-08-31T04:41:32.404Z,98278.00
2022-08-31T04:44:08.249Z,98281.00
2022-08-31T04:46:43.748Z,98275.00
2022-08-31T04:49:18.786Z,98275.00
2022-08-31T04:51:54.272Z,98283.00
2022-08-31T04:54:29.606Z,98293.00
2022-08-31T04:57:04.862Z,98295.00
2022-08-31T04:59:42.200Z,98303.00
2022-08-31T05:02:37.228Z,98301.00
2022-08-31T05:05:22.387Z,98300.00
2022-08-31T05:07:58.079Z,98305.00
2022-08-31T05:10:33.262Z,98305.00
2022-08-31T05:13:08.510Z,98301.00
2022-08-31T05:15:44.335Z,98306.00
2022-08-31T05:18:22.876Z,98311.00
2022-08-31T05:21:29.520Z,98310.00
2022-08-31T05:24:09.511Z,98317.00
2022-08-31T05:26:52.325Z,98309.00
2022-08-31T05:29:28.694Z,98313.00
2022-08-31T05:32:25.718Z,98314.00
2022-08-31T05:35:01.905Z,98310.00
2022-08-31T05:37:37.024Z,98321.00
2022-08-31T05:40:12.958Z,98320.00
2022-08-31T05:42:48.063Z,98320.00
2022-08-31T05:45:23.149Z,98317.00
2022-08-31T05:47:59.094Z,98318.00
2022-08-31T05:50:34.810Z,98319.00
2022-08-31T05:53:10.378Z,98320.00
2022-08-31T05:55:45.586Z,98320.00
2022-08-31T05:58:20.754Z,98325.00
2022-08-31T06:00:56.320Z,98328.00
2022-08-31T06:03:53.923Z,98324.00
2022-08-31T06:06:30.054Z,98332.00
2022-08-31T06:09:07.792Z,98332.00
2022-08-31T06:11:43.004Z,98330.00
2022-08-31T06:14:24.721Z,98334.00
2022-08-31T06:17:02.341Z,98334.00
2022-08-31T06:19:38.682Z,98335.00
2022-08-31T06:22:14.749Z,98335.00
2022-08-31T06:24:50.598Z,98343.00
2022-08-31T06:27:26.541Z,98342.00
2022-08-31T06:30:04.917Z,98335.00
2022-08-31T06:32:43.959Z,98345.00
2022-08-31T06:35:19.050Z,98339.00
2022-08-31T06:38:12.434Z,98350.00
2022-08-31T06:41:13.481Z,98347.00
2022-08-31T06:44:11.802Z,98346.00
2022-08-31T06:47:03.129Z,98353.00
2022-08-31T06:49:42.700Z,98346.00
2022-08-31T06:52:17.903Z,98350.00
2022-08-31T06:54:59.366Z,98349.00
2022-08-31T06:58:00.430Z,98347.00
2022-08-31T07:00:48.577Z,98346.00
2022-08-31T07:03:34.014Z,98347.00
2022-08-31T07:06:18.513Z,98350.00
2022-08-31T07:08:59.228Z,98344.00
2022-08-31T07:11:48.987Z,98345.00
2022-08-31T07:14:27.209Z,98357.00
2022-08-31T07:17:05.096Z,98365.00
2022-08-31T07:19:45.032Z,98359.00
2022-08-31T07:22:21.023Z,98366.00
2022-08-31T07:25:00.844Z,98363.00
2022-08-31T07:27:36.737Z,98364.00
2022-08-31T07:30:12.758Z,98365.00
2022-08-31T07:32:48.606Z,98363.00
2022-08-31T07:35:23.771Z,98360.00
2022-08-31T07:38:36.950Z,98366.00
2022-08-31T07:41:31.726Z,98364.00
2022-08-31T07:44:07.114Z,98362.00
2022-08-31T07:46:42.766Z,98370.00
2022-08-31T07:49:19.008Z,98367.00
2022-08-31T07:52:11.327Z,98370.00
2022-08-31T07:55:12.403Z,98368.00
2022-08-31T07:58:00.231Z,98375.00
2022-08-31T08:00:36.341Z,98370.00
2022-08-31T08:03:13.166Z,98368.00
2022-08-31T08:06:10.060Z,98377.00
2022-08-31T08:09:22.175Z,98376.00
2022-08-31T08:12:12.427Z,98383.00
2022-08-31T08:14:48.543Z,98383.00
2022-08-31T08:17:47.998Z,98380.00
2022-08-31T08:20:37.314Z,98391.00
2022-08-31T08:23:17.948Z,98387.00
2022-08-31T08:26:01.417Z,98401.00
2022-08-31T08:28:56.565Z,98391.00
2022-08-31T08:31:34.157Z,98396.00
2022-08-31T08:34:10.382Z,98400.00
2022-08-31T08:36:47.586Z,98409.00
2022-08-31T08:39:24.530Z,98408.00
2022-08-31T08:42:17.572Z,98406.00
2022-08-31T08:44:53.086Z,98395.00
2022-08-31T08:47:38.078Z,98403.00
2022-08-31T08:50:16.057Z,98404.00
2022-08-31T08:52:51.360Z,98396.00
2022-08-31T08:55:40.494Z,98402.00
2022-08-31T08:58:19.181Z,98407.00
2022-08-31T09:00:57.292Z,98419.00
2022-08-31T09:04:06.999Z,98422.00
2022-08-31T09:07:31.780Z,98424.00
2022-08-31T09:10:42.604Z,98425.00
2022-08-31T09:13:58.293Z,98421.00
2022-08-31T09:16:51.354Z,98417.00
2022-08-31T09:19:27.442Z,98429.00
2022-08-31T09:22:03.710Z,98424.00
2022-08-31T09:24:38.764Z,98425.00
2022-08-31T09:27:46.778Z,98431.00
2022-08-31T09:30:52.831Z,98432.00
2022-08-31T09:33:35.188Z,98421.00
2022-08-31T09:36:22.557Z,98422.00
2022-08-31T09:39:18.918Z,98427.00
2022-08-31T09:41:58.077Z,98422.00
2022-08-31T09:44:42.616Z,98428.00
2022-08-31T09:47:48.501Z,98429.00
2022-08-31T09:50:26.793Z,98429.00
2022-08-31T09:53:40.023Z,98427.00
2022-08-31T09:56:15.439Z,98436.00
2022-08-31T09:58:54.779Z,98432.00
2022-08-31T10:01:44.415Z,98430.00
2022-08-31T10:04:27.803Z,98428.00
2022-08-31T10:07:14.185Z,98428.00
2022-08-31T10:09:57.935Z,98426.00
2022-08-31T10:12:53.122Z,98430.00
2022-08-31T10:15:44.761Z,98423.00
2022-08-31T10:18:39.483Z,98426.00
2022-08-31T10:21:21.458Z,98425.00
2022-08-31T10:24:46.089Z,98424.00
2022-08-31T10:27:38.832Z,98426.00
2022-08-31T10:30:45.933Z,98431.00
2022-08-31T10:33:56.931Z,98432.00
2022-08-31T10:36:37.933Z,98431.00
2022-08-31T10:39:37.724Z,98434.00
2022-08-31T10:42:38.325Z,98429.00
2022-08-31T10:45:25.304Z,98421.00
2022-08-31T10:48:01.185Z,98438.00
2022-08-31T10:50:46.762Z,98434.00
2022-08-31T10:53:45.357Z,98429.00
2022-08-31T10:56:35.537Z,98433.00
2022-08-31T10:59:44.636Z,98429.00
2022-08-31T11:02:38.228Z,98427.00
2022-08-31T11:05:32.583Z,98427.00
2022-08-31T11:09:05.029Z,98428.00
2022-08-31T11:12:13.560Z,98437.00
2022-08-31T11:15:10.182Z,98435.00
2022-08-31T11:18:09.837Z,98433.00
2022-08-31T11:21:17.272Z,98431.00
2022-08-31T11:24:13.185Z,98434.00
2022-08-31T11:27:11.937Z,98422.00
2022-08-31T11:30:24.440Z,98428.00
2022-08-31T11:33:06.950Z,98422.00
2022-08-31T11:36:07.210Z,98423.00
2022-08-31T11:39:13.425Z,98424.00
2022-08-31T11:41:50.854Z,98416.00
2022-08-31T11:44:33.059Z,98422.00
2022-08-31T11:47:30.138Z,98424.00
2022-08-31T11:50:33.127Z,98425.00
2022-08-31T11:53:44.451Z,98426.00
2022-08-31T11:56:42.362Z,98423.00
2022-08-31T11:59:32.678Z,98418.00
2022-08-31T12:02:21.399Z,98417.00
2022-08-31T12:05:00.674Z,98426.00
2022-08-31T12:07:35.782Z,98418.00
2022-08-31T12:10:33.600Z,98409.00
2022-08-31T12:14:02.268Z,98409.00
2022-08-31T12:17:28.240Z,98411.00
2022-08-31T12:21:06.978Z,98406.00
2022-08-31T12:24:03.525Z,98399.00
2022-08-31T12:27:21.436Z,98396.00
2022-08-31T12:30:28.058Z,98398.00
2022-08-31T12:33:13.295Z,98395.00
2022-08-31T12:35:52.932Z,98399.00
2022-08-31T12:38:28.029Z,98382.00
2022-08-31T12:41:05.340Z,98382.00
2022-08-31T12:43:49.123Z,98394.00
2022-08-31T12:46:26.657Z,98390.00
2022-08-31T12:49:16.940Z,98387.00
2022-08-31T12:52:15.687Z,98390.00
2022-08-31T12:55:25.577Z,98379.00
2022-08-31T12:58:41.875Z,98377.00
2022-08-31T13:01:24.999Z,98373.00
2022-08-31T13:04:02.203Z,98378.00
2022-08-31T13:06:40.778Z,98370.00
2022-08-31T13:09:30.894Z,98376.00
2022-08-31T13:12:06.111Z,98364.00
2022-08-31T13:14:43.695Z,98366.00
2022-08-31T13:17:21.983Z,98369.00
2022-08-31T13:19:59.247Z,98363.00
2022-08-31T13:22:41.292Z,98358.00
2022-08-31T13:25:36.454Z,98360.00
2022-08-31T13:28:12.465Z,98356.00
2022-08-31T13:31:03.633Z,98349.00
2022-08-31T13:33:40.438Z,98341.00
2022-08-31T13:36:34.045Z,98347.00
2022-08-31T13:39:23.447Z,98338.00
2022-08-31T13:42:28.791Z,98340.00
2022-08-31T13:45:10.634Z,98330.00
2022-08-31T13:48:08.193Z,98333.00
2022-08-31T13:50:52.747Z,98329.00
2022-08-31T13:53:45.863Z,98322.00
2022-08-31T13:56:47.202Z,98324.00
2022-08-31T13:59:24.917Z,98319.00
2022-08-31T14:02:30.928Z,98316.00
2022-08-31T14:05:33.288Z,98319.00
2022-08-31T14:08:09.493Z,98315.00
2022-08-31T14:10:47.822Z,98322.00
2022-08-31T14:13:27.849Z,98316.00
2022-08-31T14:16:03.962Z,98318.00
2022-08-31T14:18:43.272Z,98320.00
2022-08-31T14:21:21.778Z,98307.00
2022-08-31T14:24:04.591Z,98314.00
2022-08-31T14:26:44.034Z,98304.00
2022-08-31T14:29:18.906Z,98300.00
2022-08-31T14:31:54.929Z,98292.00
2022-08-31T14:34:36.119Z,98299.00
2022-08-31T14:37:19.887Z,98295.00
2022-08-31T14:39:57.677Z,98296.00
2022-08-31T14:42:38.076Z,98287.00
2022-08-31T14:45:19.026Z,98290.00
2022-08-31T14:47:55.980Z,98282.00
2022-08-31T14:50:30.863Z,98292.00
2022-08-31T14:53:11.914Z,98289.00
2022-08-31T14:55:46.824Z,98294.00
2022-08-31T14:58:23.824Z,98297.00
2022-08-31T15:01:01.474Z,98291.00
2022-08-31T15:03:40.193Z,98294.00
2022-08-31T15:06:19.675Z,98291.00
2022-08-31T15:08:54.560Z,98285.00
2022-08-31T15:11:29.867Z,98298.00
2022-08-31T15:14:12.254Z,98296.00
2022-08-31T15:16:50.840Z,98297.00
2022-08-31T15:19:26.031Z,98297.00
2022-08-31T15:22:05.443Z,98294.00
2022-08-31T15:24:44.631Z,98297.00
2022-08-31T15:27:20.672Z,98300.00
2022-08-31T15:29:59.154Z,98308.00
2022-08-31T15:32:45.162Z,98305.00
2022-08-31T15:35:24.468Z,98303.00
2022-08-31T15:38:01.225Z,98302.00
2022-08-31T15:40:39.119Z,98300.00
2022-08-31T15:43:15.322Z,98301.00
2022-08-31T15:45:50.253Z,98297.00
2022-08-31T15:48:45.216Z,98298.00
2022-08-31T15:51:27.854Z,98289.00
2022-08-31T15:54:21.269Z,98288.00
2022-08-31T15:56:58.189Z,98282.00
2022-08-31T15:59:35.082Z,98286.00
2022-08-31T16:02:13.553Z,98278.00
2022-08-31T16:04:51.291Z,98275.00
2022-08-31T16:07:26.923Z,98268.00
2022-08-31T16:10:11.241Z,98259.00
2022-08-31T16:12:47.115Z,98261.00
2022-08-31T16:15:24.862Z,98261.00
2022-08-31T16:18:02.893Z,98260.00
2022-08-31T16:20:39.268Z,98263.00
2022-08-31T16:23:14.998Z,98264.00
2022-08-31T16:25:50.010Z,98260.00
2022-08-31T16:28:25.054Z,98257.00
2022-08-31T16:31:02.695Z,98255.00
2022-08-31T16:33:40.409Z,98252.00
2022-08-31T16:36:18.633Z,98246.00
2022-08-31T16:38:54.569Z,98248.00
2022-08-31T16:41:31.749Z,98257.00
2022-08-31T16:44:19.667Z,98252.00
2022-08-31T16:46:55.208Z,98258.00
2022-08-31T16:49:36.419Z,98251.00
2022-08-31T16:52:21.269Z,98258.00
2022-08-31T16:54:57.408Z,98260.00
2022-08-31T16:57:32.800Z,98263.00
2022-08-31T17:00:08.941Z,98261.00
2022-08-31T17:02:43.894Z,98262.00
2022-08-31T17:05:18.959Z,98269.00
2022-08-31T17:07:53.866Z,98262.00
2022-08-31T17:10:29.577Z,98252.00
2022-08-31T17:13:04.519Z,98264.00
2022-08-31T17:15:39.464Z,98255.00
2022-08-31T17:18:15.867Z,98259.00
2022-08-31T17:20:52.482Z,98256.00
2022-08-31T17:23:28.140Z,98266.00
2022-08-31T17:26:06.329Z,98265.00
2022-08-31T17:28:43.750Z,98263.00
2022-08-31T17:31:19.671Z,98262.00
2022-08-31T17:33:56.282Z,98259.00
2022-08-31T17:36:37.315Z,98261.00
2022-08-31T17:39:14.804Z,98263.00
2022-08-31T17:41:51.426Z,98258.00
2022-08-31T17:44:31.631Z,98264.00
2022-08-31T17:47:07.698Z,98264.00
2022-08-31T17:49:46.574Z,98269.00
2022-08-31T17:52:23.170Z,98264.00
2022-08-31T17:55:01.821Z,98266.00
2022-08-31T17:57:36.810Z,98279.00
2022-08-31T18:00:14.794Z,98274.00
2022-08-31T18:02:49.794Z,98288.00
2022-08-31T18:05:24.735Z,98294.00
2022-08-31T18:07:59.773Z,98289.00
2022-08-31T18:10:34.726Z,98299.00
2022-08-31T18:13:09.675Z,98289.00
2022-08-31T18:15:45.062Z,98292.00
2022-08-31T18:18:20.133Z,98295.00
2022-08-31T18:20:55.284Z,98295.00
2022-08-31T18:23:30.240Z,98306.00
2022-08-31T18:26:31.070Z,98302.00
2022-08-31T18:29:09.273Z,98309.00
2022-08-31T18:31:49.955Z,98305.00
2022-08-31T18:34:25.753Z,98310.00
2022-08-31T18:37:02.246Z,98310.00
2022-08-31T18:39:59.714Z,98308.00
2022-08-31T18:42:56.870Z,98312.00
2022-08-31T18:45:32.173Z,98311.00
2022-08-31T18:48:24.349Z,98318.00
2022-08-31T18:51:03.224Z,98316.00
2022-08-31T18:53:38.338Z,98322.00
2022-08-31T18:56:13.311Z,98319.00
2022-08-31T18:58:48.245Z,98325.00
2022-08-31T19:01:25.402Z,98318.00
2022-08-31T19:04:03.448Z,98323.00
2022-08-31T19:06:40.946Z,98323.00
2022-08-31T19:09:18.558Z,98327.00
2022-08-31T19:11:55.885Z,98322.00
2022-08-31T19:14:37.367Z,98314.00
2022-08-31T19:17:12.357Z,98317.00
2022-08-31T19:19:49.348Z,98314.00
2022-08-31T19:22:24.322Z,98316.00
2022-08-31T19:24:59.299Z,98313.00
2022-08-31T19:27:37.288Z,98316.00
2022-08-31T19:30:13.209Z,98323.00
2022-08-31T19:32:48.542Z,98312.00
2022-08-31T19:35:26.931Z,98313.00
2022-08-31T19:38:02.298Z,98314.00
2022-08-31T19:40:39.239Z,98313.00
2022-08-31T19:46:20.096Z,98313.00
2022-08-31T19:49:02.245Z,98309.00
2022-08-31T19:51:41.553Z,98310.00
2022-08-31T19:54:21.128Z,98312.00
2022-08-31T19:57:00.190Z,98317.00
2022-08-31T19:59:37.216Z,98315.00
2022-08-31T20:02:14.086Z,98310.00
2022-08-31T20:04:49.179Z,98317.00
2022-08-31T20:07:24.848Z,98313.00
2022-08-31T20:10:05.614Z,98305.00
2022-08-31T20:12:42.754Z,98312.00
2022-08-31T20:15:17.796Z,98310.00
2022-08-31T20:17:57.426Z,98306.00
2022-08-31T20:20:36.110Z,98300.00
2022-08-31T20:23:16.761Z,98305.00
2022-08-31T20:25:53.274Z,98294.00
2022-08-31T20:28:28.373Z,98300.00
2022-08-31T20:31:10.043Z,98298.00
2022-08-31T20:33:47.018Z,98296.00
2022-08-31T20:36:27.837Z,98300.00
2022-08-31T20:39:12.727Z,98307.00
2022-08-31T20:41:51.136Z,98298.00
2022-08-31T20:44:34.752Z,98296.00
2022-08-31T20:47:29.126Z,98298.00
2022-08-31T20:50:07.386Z,98293.00
2022-08-31T20:52:42.463Z,98299.00
2022-08-31T20:55:17.481Z,98300.00
2022-08-31T20:57:52.596Z,98296.00
2022-08-31T21:00:27.508Z,98308.00
2022-08-31T21:03:03.319Z,98303.00
2022-08-31T21:05:39.174Z,98302.00
2022-08-31T21:08:16.720Z,98297.00
2022-08-31T21:10:51.594Z,98305.00
2022-08-31T21:13:26.514Z,98308.00
2022-08-31T21:16:01.426Z,98313.00
2022-08-31T21:18:37.104Z,98311.00
2022-08-31T21:21:16.404Z,98320.00
2022-08-31T21:23:51.271Z,98310.00
2022-08-31T21:26:27.812Z,98310.00
2022-08-31T21:29:02.784Z,98307.00
2022-08-31T21:31:48.001Z,98309.00
2022-08-31T21:34:28.130Z,98303.00
2022-08-31T21:37:03.430Z,98294.00
2022-08-31T21:39:39.618Z,98295.00
2022-08-31T21:42:14.643Z,98304.00
2022-08-31T21:44:50.396Z,98298.00
2022-08-31T21:47:26.173Z,98304.00
2022-08-31T21:50:01.173Z,98308.00
2022-08-31T21:52:36.053Z,98309.00
2022-08-31T21:55:13.537Z,98313.00
2022-08-31T21:57:48.420Z,98305.00
2022-08-31T22:00:29.423Z,98308.00
2022-08-31T22:03:04.967Z,98316.00
2022-08-31T22:05:41.661Z,98318.00
2022-08-31T22:08:17.857Z,98318.00
2022-08-31T22:10:52.913Z,98329.00
2022-08-31T22:13:27.991Z,98330.00
2022-08-31T22:16:13.262Z,98324.00
2022-08-31T22:19:02.793Z,98334.00
2022-08-31T22:21:43.086Z,98329.00
2022-08-31T22:24:27.156Z,98332.00
2022-08-31T22:27:08.274Z,98335.00
2022-08-31T22:29:43.234Z,98336.00
2022-08-31T22:32:18.322Z,98332.00
2022-08-31T22:34:53.215Z,98346.00
2022-08-31T22:37:28.093Z,98335.00
2022-08-31T22:40:03.370Z,98343.00
2022-08-31T22:42:38.248Z,98346.00
2022-08-31T22:45:13.292Z,98338.00
2022-08-31T22:47:50.116Z,98338.00
2022-08-31T22:50:25.686Z,98336.00
2022-08-31T22:53:00.844Z,98339.00
2022-08-31T22:55:38.730Z,98340.00
2022-08-31T22:58:14.176Z,98342.00
2022-08-31T23:00:49.042Z,98343.00
2022-08-31T23:03:23.996Z,98341.00
2022-08-31T23:05:58.945Z,98333.00
2022-08-31T23:08:34.170Z,98335.00
2022-08-31T23:11:09.943Z,98332.00
2022-08-31T23:13:55.331Z,98330.00
2022-08-31T23:16:36.708Z,98331.00
2022-08-31T23:19:17.124Z,98321.00
2022-08-31T23:21:57.547Z,98332.00
2022-08-31T23:24:47.434Z,98329.00
2022-08-31T23:27:22.650Z,98317.00
2022-08-31T23:29:58.023Z,98312.00
2022-08-31T23:32:34.922Z,98321.00
2022-08-31T23:35:13.475Z,98309.00
2022-08-31T23:37:48.844Z,98304.00
2022-08-31T23:40:23.734Z,98299.00
2022-08-31T23:42:58.646Z,98298.00
2022-08-31T23:45:33.530Z,98294.00
2022-08-31T23:48:09.291Z,98291.00
2022-08-31T23:50:44.766Z,98302.00
2022-08-31T23:53:19.627Z,98297.00
2022-08-31T23:55:54.502Z,98303.00
2022-08-31T23:58:31.704Z,98293.00
